Denver, Iowa
Current Conditions -  °F | °C
As of 12:54 PM on Monday 20 Oct 2014 (Local Time) from KALO Reporting Station
Clear Clear  
Wind Chill: 66°   Ceiling: Unl
Heat Index: 66°   Visibility: 10mi
Dew Point: 43°   Wind: 18mph
Humidity: 43%   Direction: 350°N
Pressure: 29.97"   Gusts: 25mph
Location:  42.67°N, 92.34°W
Report Text: KALO 201754Z 35016G22KT 10SM CLR 19/06 A2997 RMK AO2 SLP148 T01890061 10189 20061 58012
Loading
Personal Weather Stations






























Interactive Weather Map
Tropical Storm Tracking
New forecast layout! Learn more

10-Day Weather Forecast

Advertisements
Track Severe Weather on mobile